Time;durP1;ratioP1;P1;durP2;ratioP2;P2;SDS_P1;SDS_P2;PMS_P1;PMS_P2;Temp;Humidity;BMP_temperature;BMP_pressure;BME280_temperature;BME280_humidity;BME280_pressure;Samples;Min_cycle;Max_cycle;Signal;HPM_P1;HPM_P2
2022/01/21 00:01:49;;;;;;;12.18;7.12;;;;;;;-4.07;100.00;98145.94;1705211;84;21172;-70
2022/01/21 00:04:17;;;;;;;16.25;7.25;;;;;;;-4.15;100.00;98137.73;1706436;82;21021;-69
2022/01/21 00:06:44;;;;;;;12.98;7.40;;;;;;;-4.19;100.00;98152.22;1708445;82;20859;-68
2022/01/21 00:09:11;;;;;;;8.35;7.37;;;;;;;-4.25;100.00;98148.56;1710498;82;20949;-68
2022/01/21 00:11:39;;;;;;;11.45;10.38;;;;;;;-4.32;100.00;98157.69;1714815;82;20954;-69
2022/01/21 00:14:07;;;;;;;7.80;7.03;;;;;;;-4.36;100.00;98157.78;1699886;84;21987;-69
2022/01/21 00:16:37;;;;;;;48.48;25.37;;;;;;;-4.42;100.00;98153.80;1698582;83;20985;-68
2022/01/21 00:19:13;;;;;;;11.90;9.38;;;;;;;-4.47;100.00;98157.50;1697496;84;20977;-69
2022/01/21 00:30:15;;;;;;;7.75;6.95;;;;;;;-4.55;100.00;98164.50;1697331;84;20957;-69
2022/01/21 00:32:45;;;;;;;15.40;6.78;;;;;;;-4.62;100.00;98168.08;1697662;83;20873;-71
2022/01/21 00:35:12;;;;;;;10.72;8.03;;;;;;;-4.69;100.00;98157.55;1697627;84;20994;-68
2022/01/21 00:37:39;;;;;;;15.98;8.33;;;;;;;-4.74;100.00;98155.48;1697678;83;21052;-71
2022/01/21 00:40:14;;;;;;;10.35;7.87;;;;;;;-4.75;100.00;98157.81;1706255;82;21155;-68
2022/01/21 00:45:15;;;;;;;7.08;6.37;;;;;;;-4.80;100.00;98157.57;1699819;84;20983;-69
2022/01/21 00:47:43;;;;;;;8.30;6.72;;;;;;;-4.80;100.00;98163.28;1699836;83;20946;-70
2022/01/21 00:50:10;;;;;;;11.80;7.45;;;;;;;-4.82;100.00;98154.33;1700365;83;20890;-71
2022/01/21 00:52:38;;;;;;;11.60;7.62;;;;;;;-4.80;100.00;98152.81;1699092;83;21563;-71
2022/01/21 00:55:06;;;;;;;8.38;7.25;;;;;;;-4.79;100.00;98146.09;1697801;83;20913;-70
2022/01/21 00:57:32;;;;;;;11.30;7.90;;;;;;;-4.84;100.00;98138.50;1698431;82;22062;-70
2022/01/21 00:59:59;;;;;;;9.00;7.55;;;;;;;-4.84;100.00;98133.27;1705006;83;21014;-71
2022/01/21 01:02:26;;;;;;;16.07;8.35;;;;;;;-4.92;100.00;98130.77;1704109;83;21630;-70
2022/01/21 01:04:53;;;;;;;12.63;7.00;;;;;;;-4.97;100.00;98135.29;1699728;84;21068;-71
2022/01/21 01:07:20;;;;;;;8.90;7.33;;;;;;;-5.00;100.00;98132.55;1704629;82;21500;-70
2022/01/21 01:09:51;;;;;;;7.72;6.87;;;;;;;-5.01;100.00;98136.14;1699325;82;21085;-70
2022/01/21 01:12:28;;;;;;;11.30;7.85;;;;;;;-5.01;100.00;98136.14;1714615;80;21371;-71
2022/01/21 01:20:16;;;;;;;12.88;7.85;;;;;;;-5.06;100.00;98129.87;1735457;82;20961;-69
2022/01/21 01:28:04;;;;;;;15.18;12.73;;;;;;;-4.97;100.00;98115.66;1760903;81;21377;-70
2022/01/21 01:30:33;;;;;;;17.45;10.85;;;;;;;-4.90;100.00;98124.84;1760649;81;21084;-69
2022/01/21 01:33:02;;;;;;;7.37;6.37;;;;;;;-4.83;100.00;98117.86;1760753;81;20938;-70
2022/01/21 01:35:33;;;;;;;9.35;6.45;;;;;;;-4.77;100.00;98107.45;1760863;81;20910;-70
2022/01/21 01:41:01;;;;;;;10.93;7.47;;;;;;;-4.74;100.00;98114.11;1760749;81;20926;-70
2022/01/21 01:51:13;;;;;;;11.05;7.08;;;;;;;-4.96;100.00;98104.98;1724883;82;21008;-70
2022/01/21 01:53:58;;;;;;;9.23;7.22;;;;;;;-5.01;100.00;98102.13;1724749;83;21007;-69
2022/01/21 01:56:29;;;;;;;7.47;6.08;;;;;;;-4.99;100.00;98092.79;1724740;83;21133;-70
2022/01/21 01:58:56;;;;;;;8.10;7.20;;;;;;;-4.92;100.00;98095.44;1724318;82;20929;-70
2022/01/21 02:01:22;;;;;;;7.95;6.42;;;;;;;-4.90;100.00;98102.13;1724974;83;20937;-69
2022/01/21 02:03:50;;;;;;;7.58;6.83;;;;;;;-4.89;100.00;98093.77;1714064;82;20932;-69
2022/01/21 02:06:20;;;;;;;7.30;6.70;;;;;;;-4.87;100.00;98086.55;1713178;83;20948;-69
2022/01/21 02:08:47;;;;;;;7.55;6.33;;;;;;;-4.81;100.00;98085.77;1729829;83;21092;-70
2022/01/21 02:11:14;;;;;;;9.18;6.35;;;;;;;-4.70;100.00;98087.86;1727757;81;21423;-70
2022/01/21 02:13:48;;;;;;;10.40;7.28;;;;;;;-4.66;100.00;98079.11;1726202;83;21009;-70
2022/01/21 02:16:33;;;;;;;10.13;7.00;;;;;;;-4.59;100.00;98091.24;1726669;81;21033;-69
2022/01/21 02:21:39;;;;;;;18.80;6.70;;;;;;;-4.38;100.00;98086.44;1715253;83;21511;-70
2022/01/21 02:24:21;;;;;;;8.48;6.45;;;;;;;-4.32;100.00;98076.48;1714280;83;20993;-71
2022/01/21 02:26:50;;;;;;;8.30;6.78;;;;;;;-4.27;100.00;98082.95;1714085;83;20953;-68
2022/01/21 02:29:29;;;;;;;9.83;6.65;;;;;;;-4.25;100.00;98079.14;1714736;83;21037;-70
2022/01/21 02:31:58;;;;;;;6.25;5.75;;;;;;;-4.23;100.00;98078.95;1735531;82;20917;-70
2022/01/21 02:34:25;;;;;;;;;;;;;;;-4.24;100.00;98065.02;1730192;81;21256;-69
2022/01/21 02:36:55;;;;;;;7.80;6.83;;;;;;;-4.25;100.00;98072.59;1741185;81;20491;-70
2022/01/21 02:39:21;;;;;;;9.30;6.80;;;;;;;-4.24;100.00;98070.77;1747778;82;20957;-69
2022/01/21 02:41:48;;;;;;;8.03;6.72;;;;;;;-4.21;100.00;98060.72;1748037;82;20984;-70
2022/01/21 02:44:17;;;;;;;10.30;8.05;;;;;;;-4.21;100.00;98059.92;1747727;82;20934;-70
2022/01/21 02:46:54;;;;;;;9.18;6.95;;;;;;;-4.18;100.00;98062.95;1747613;82;21206;-70
2022/01/21 02:49:18;;;;;;;10.00;7.45;;;;;;;-4.19;100.00;98060.03;1751044;81;21001;-70
2022/01/21 02:51:47;;;;;;;8.80;7.65;;;;;;;-4.18;100.00;98050.35;1755186;81;21384;-69
2022/01/21 02:54:17;;;;;;;9.33;6.92;;;;;;;-4.18;100.00;98054.28;1755266;81;21433;-70
2022/01/21 02:56:43;;;;;;;9.00;6.28;;;;;;;-4.19;100.00;98055.27;1755696;81;20863;-70
2022/01/21 02:59:10;;;;;;;19.95;10.68;;;;;;;-4.23;100.00;98049.63;1750808;81;21786;-69
2022/01/21 03:01:39;;;;;;;10.00;9.03;;;;;;;-4.24;100.00;98050.61;1717272;82;21008;-72
2022/01/21 03:04:09;;;;;;;11.90;7.28;;;;;;;-4.22;100.00;98045.98;1724563;83;21408;-70
2022/01/21 03:06:38;;;;;;;13.53;10.00;;;;;;;-4.22;100.00;98038.12;1718054;83;20961;-70
2022/01/21 03:09:07;;;;;;;8.05;7.28;;;;;;;-4.19;100.00;98034.31;1723251;81;20905;-69
2022/01/21 03:11:34;;;;;;;15.03;10.85;;;;;;;-4.21;100.00;98025.86;1720734;81;21140;-69
2022/01/21 03:14:01;;;;;;;11.30;9.30;;;;;;;-4.18;100.00;98033.32;1716573;83;21037;-70
2022/01/21 03:16:28;;;;;;;8.20;7.35;;;;;;;-4.17;100.00;98030.99;1726268;83;20917;-71
2022/01/21 03:18:56;;;;;;;10.15;8.75;;;;;;;-4.18;100.00;98024.95;1728491;82;20976;-69
2022/01/21 03:21:22;;;;;;;7.87;7.05;;;;;;;-4.19;100.00;98022.52;1723814;83;20920;-69
2022/01/21 03:23:51;;;;;;;7.08;5.67;;;;;;;-4.18;100.00;98026.77;1737962;82;21069;-69
2022/01/21 03:26:21;;;;;;;8.58;7.33;;;;;;;-4.19;100.00;98022.52;1733902;82;20944;-69
2022/01/21 03:28:52;;;;;;;16.52;9.65;;;;;;;-4.18;100.00;98016.29;1709660;82;20906;-69
2022/01/21 03:31:19;;;;;;;8.65;7.53;;;;;;;-4.19;100.00;98020.73;1726347;83;21503;-69
2022/01/21 03:33:46;;;;;;;9.48;7.08;;;;;;;-4.21;100.00;98000.97;1724607;83;20941;-70
2022/01/21 03:36:13;;;;;;;14.45;7.67;;;;;;;-4.19;100.00;98022.52;1736435;82;21127;-69
2022/01/21 03:38:41;;;;;;;8.18;7.37;;;;;;;-4.23;100.00;98015.56;1730812;82;21480;-69
2022/01/21 03:41:08;;;;;;;11.50;8.73;;;;;;;-4.23;100.00;98003.77;1726099;83;21486;-69
2022/01/21 03:43:35;;;;;;;8.18;5.95;;;;;;;-4.21;100.00;98009.63;1724697;81;21069;-70
2022/01/21 03:46:04;;;;;;;8.43;7.10;;;;;;;-4.19;100.00;98001.55;1730187;82;20921;-69
2022/01/21 03:48:31;;;;;;;;;;;;;;;-4.24;100.00;98006.07;1726984;82;21925;-70
2022/01/21 03:50:58;;;;;;;8.07;6.47;;;;;;;-4.21;100.00;98007.52;1736342;82;20096;-70
2022/01/21 03:53:25;;;;;;;12.58;10.55;;;;;;;-4.23;100.00;98011.63;1738236;82;20901;-71
2022/01/21 03:55:52;;;;;;;11.08;6.92;;;;;;;-4.22;100.00;97996.20;1736355;82;20904;-70
2022/01/21 03:58:19;;;;;;;8.63;7.08;;;;;;;-4.21;100.00;98014.07;1736232;82;20908;-71
2022/01/21 04:00:51;;;;;;;6.47;5.87;;;;;;;-4.21;100.00;98010.94;1736671;82;21134;-70
2022/01/21 04:03:20;;;;;;;8.23;6.92;;;;;;;-4.21;100.00;98016.18;1714756;82;21029;-71
2022/01/21 04:05:48;;;;;;;7.47;6.75;;;;;;;-4.19;100.00;98013.34;1721544;82;21480;-71
2022/01/21 04:08:15;;;;;;;11.65;7.75;;;;;;;-4.19;100.00;98010.25;1728623;83;21063;-71
2022/01/21 04:10:48;;;;;;;;;;;;;;;-4.19;100.00;98012.87;1726321;82;21506;-71
2022/01/21 04:13:18;;;;;;;7.42;6.55;;;;;;;-4.17;100.00;98010.83;1713729;82;21170;-71
2022/01/21 04:15:51;;;;;;;7.90;6.58;;;;;;;-4.19;100.00;98009.41;1701366;83;21503;-70
2022/01/21 04:18:19;;;;;;;9.18;6.58;;;;;;;-4.20;100.00;98010.44;1649960;85;20978;-70
2022/01/21 04:20:48;;;;;;;7.08;6.40;;;;;;;-4.17;100.00;98017.38;1694117;83;20982;-71
2022/01/21 04:23:16;;;;;;;9.33;7.00;;;;;;;-4.19;100.00;98014.17;1702001;84;20940;-70
2022/01/21 04:25:44;;;;;;;8.98;6.80;;;;;;;-4.16;100.00;98023.45;1708348;82;21143;-70
2022/01/21 04:28:11;;;;;;;6.72;6.08;;;;;;;-4.13;100.00;98021.23;1708354;84;20999;-70
2022/01/21 04:30:39;;;;;;;7.42;6.62;;;;;;;-4.09;100.00;98012.50;1708118;82;21574;-71
2022/01/21 04:33:06;;;;;;;9.03;6.45;;;;;;;-4.04;100.00;98010.09;1708200;82;20916;-70
2022/01/21 04:35:34;;;;;;;7.92;6.80;;;;;;;-4.01;100.00;98000.52;1708068;82;20889;-70
2022/01/21 04:38:02;;;;;;;12.05;7.83;;;;;;;-3.98;100.00;98016.34;1708168;82;21147;-69
2022/01/21 04:40:33;;;;;;;68.75;61.88;;;;;;;-4.01;100.00;97998.40;1706280;83;21478;-72
2022/01/21 04:48:36;;;;;;;9.23;7.65;;;;;;;-4.04;100.00;98014.02;1695748;84;20117;-71
2022/01/21 04:51:18;;;;;;;8.83;7.47;;;;;;;-4.06;100.00;97999.50;1683323;85;25224;-71
2022/01/21 04:53:46;;;;;;;10.08;7.40;;;;;;;-4.09;100.00;97999.39;1683190;85;20958;-72
2022/01/21 04:56:15;;;;;;;9.83;6.95;;;;;;;-4.13;100.00;97990.30;1682696;83;20974;-71
2022/01/21 04:58:43;;;;;;;8.35;7.37;;;;;;;-4.10;100.00;98009.05;1693078;83;20950;-71
2022/01/21 05:01:11;;;;;;;9.20;7.17;;;;;;;-4.08;100.00;97990.52;1711968;83;21003;-70
2022/01/21 05:03:40;;;;;;;;;;;;;;;-4.08;100.00;97997.57;1714625;83;21997;-72
2022/01/21 05:06:12;;;;;;;11.57;6.87;;;;;;;-4.13;100.00;97991.61;1702005;83;20469;-70
2022/01/21 05:08:52;;;;;;;7.80;7.05;;;;;;;-4.10;100.00;97996.45;1683439;83;21536;-71
2022/01/21 05:11:17;;;;;;;7.50;6.80;;;;;;;-4.11;100.00;98006.13;1682852;84;21881;-69
2022/01/21 05:13:54;;;;;;;6.75;6.17;;;;;;;-4.13;100.00;98006.83;1681175;83;21398;-71
2022/01/21 05:18:50;;;;;;;10.20;6.28;;;;;;;-4.17;100.00;98022.62;1681203;83;21016;-70
2022/01/21 05:21:31;;;;;;;7.17;6.53;;;;;;;-4.17;100.00;98008.21;1673249;84;20999;-72
2022/01/21 05:23:59;;;;;;;;;;;;;;;-4.22;100.00;97991.48;1675189;84;21014;-70
2022/01/21 05:26:35;;;;;;;9.70;8.28;;;;;;;-4.21;100.00;98018.00;1677317;85;20466;-71
2022/01/21 05:28:55;;;;;;;11.68;10.45;;;;;;;-4.22;100.00;98014.55;1674951;85;21167;-70
2022/01/21 05:31:42;;;;;;;41.68;32.00;;;;;;;-4.19;100.00;98019.89;1612169;88;20988;-72
2022/01/21 05:34:10;;;;;;;30.20;26.93;;;;;;;-4.16;100.00;98028.70;1610740;87;21593;-72
2022/01/21 05:36:42;;;;;;;17.87;16.05;;;;;;;-4.16;100.00;98022.14;1610880;87;21008;-70
2022/01/21 05:39:23;;;;;;;13.25;9.98;;;;;;;-4.16;100.00;98007.23;1610844;87;20924;-71
2022/01/21 05:41:53;;;;;;;42.20;21.35;;;;;;;-4.16;100.00;98003.30;1610182;88;21173;-71
2022/01/21 05:47:11;;;;;;;103.38;43.42;;;;;;;-4.14;100.00;98013.08;1614306;87;21585;-71
2022/01/21 05:49:48;;;;;;;26.68;18.12;;;;;;;-4.04;100.00;98015.33;1613141;87;21110;-71
2022/01/21 05:52:38;;;;;;;10.93;9.88;;;;;;;-4.06;100.00;98020.46;1610292;89;21187;-73
2022/01/21 05:55:16;;;;;;;24.90;13.40;;;;;;;-4.07;100.00;98012.28;1598102;89;21199;-71
2022/01/21 05:57:44;;;;;;;28.57;14.45;;;;;;;-4.04;100.00;98023.19;1587883;90;20967;-71
2022/01/21 06:00:16;;;;;;;14.65;8.95;;;;;;;-4.05;100.00;98012.38;1587689;90;21015;-70
2022/01/21 06:03:00;;;;;;;22.85;18.25;;;;;;;-4.06;100.00;98021.27;1583518;89;21019;-70
2022/01/21 06:05:31;;;;;;;15.93;11.18;;;;;;;-4.04;100.00;98026.29;1623118;87;21504;-69
2022/01/21 06:07:57;;;;;;;9.15;8.35;;;;;;;-4.07;100.00;98013.59;1608394;86;21170;-71
2022/01/21 06:10:30;;;;;;;25.40;12.55;;;;;;;-4.02;100.00;98015.11;1619555;87;21476;-69
2022/01/21 06:12:58;;;;;;;16.40;9.15;;;;;;;-4.02;100.00;98021.66;1612638;87;21529;-71
2022/01/21 06:15:28;;;;;;;11.70;8.48;;;;;;;-3.98;100.00;98013.72;1611944;86;21165;-68
2022/01/21 06:17:56;;;;;;;13.28;8.68;;;;;;;-3.97;100.00;98013.53;1625884;88;21273;-67
2022/01/21 06:20:25;;;;;;;25.30;8.73;;;;;;;-3.95;100.00;98013.32;1629002;85;22039;-73
2022/01/21 06:22:52;;;;;;;13.30;9.65;;;;;;;-3.91;100.00;98011.41;1650277;85;21022;-71
2022/01/21 06:25:18;;;;;;;12.18;7.90;;;;;;;-3.95;100.00;98002.83;1621163;87;21076;-71
2022/01/21 06:27:45;;;;;;;16.42;10.32;;;;;;;-3.90;100.00;97986.00;1676964;83;21166;-70
2022/01/21 06:30:12;;;;;;;19.77;10.70;;;;;;;-3.86;100.00;98023.93;1685910;82;20999;-72
2022/01/21 06:32:41;;;;;;;14.40;8.68;;;;;;;-3.88;100.00;98008.39;1661705;86;21005;-70
2022/01/21 06:35:12;;;;;;;15.13;8.13;;;;;;;-3.92;100.00;98012.44;1729178;82;21008;-72
2022/01/21 06:37:39;;;;;;;56.33;38.38;;;;;;;-3.91;100.00;98002.75;1728445;82;20994;-71
2022/01/21 06:40:08;;;;;;;36.25;28.65;;;;;;;-3.94;100.00;98003.16;1727512;81;21027;-69
2022/01/21 06:42:35;;;;;;;15.20;9.05;;;;;;;-3.97;100.00;98027.12;1730187;82;21030;-69
2022/01/21 06:45:02;;;;;;;15.38;10.10;;;;;;;-3.99;100.00;98014.23;1731327;82;21124;-70
2022/01/21 06:47:29;;;;;;;12.43;7.40;;;;;;;-3.96;100.00;98022.20;1728373;83;21002;-68
2022/01/21 06:49:59;;;;;;;10.05;7.28;;;;;;;-3.95;100.00;98010.19;1728377;82;21558;-71
2022/01/21 06:52:28;;;;;;;9.13;7.75;;;;;;;-3.90;100.00;98000.42;1731597;82;21001;-67
2022/01/21 06:54:56;;;;;;;15.88;10.00;;;;;;;-3.81;100.00;98018.09;1732358;81;21044;-70
2022/01/21 06:57:24;;;;;;;48.90;42.73;;;;;;;-3.77;100.00;97993.91;1740875;82;21959;-68
2022/01/21 06:59:51;;;;;;;11.83;7.70;;;;;;;-3.62;100.00;98021.77;1735718;82;28098;-71
2022/01/21 07:02:19;;;;;;;19.57;10.53;;;;;;;-3.61;100.00;98024.17;1726791;81;20992;-69
2022/01/21 07:04:47;;;;;;;45.17;19.90;;;;;;;-3.57;100.00;98031.95;1731972;82;20993;-70
2022/01/21 07:07:13;;;;;;;13.13;9.75;;;;;;;-3.53;100.00;98010.88;1748093;82;20996;-67
2022/01/21 07:09:41;;;;;;;36.45;17.57;;;;;;;-3.52;100.00;98011.17;1747554;81;21340;-68
2022/01/21 07:12:12;;;;;;;17.82;12.40;;;;;;;-3.42;100.00;97958.30;1750380;82;21771;-69
2022/01/21 07:14:40;;;;;;;31.12;15.28;;;;;;;-3.37;100.00;98028.03;1747073;81;21045;-70
2022/01/21 07:17:07;;;;;;;37.40;9.90;;;;;;;-3.30;100.00;98030.16;1741142;82;21500;-69
2022/01/21 07:19:34;;;;;;;56.80;48.30;;;;;;;-3.29;100.00;98026.50;1742854;82;21029;-69
2022/01/21 07:22:01;;;;;;;12.63;8.73;;;;;;;-3.25;100.00;98032.97;1723890;82;21221;-68
2022/01/21 07:24:28;;;;;;;16.05;10.05;;;;;;;-3.34;100.00;98027.61;1711859;82;21098;-69
2022/01/21 07:26:55;;;;;;;66.37;30.80;;;;;;;-3.39;100.00;98018.23;1717982;82;20866;-69
2022/01/21 07:29:22;;;;;;;69.70;24.55;;;;;;;-3.38;100.00;98022.48;1743133;82;21049;-71
2022/01/21 07:31:53;;;;;;;85.35;37.25;;;;;;;-3.28;100.00;98016.84;1719849;82;21056;-69
2022/01/21 07:34:17;;;;;;;;;;;;;;;-3.20;100.00;98030.25;1736511;82;21981;-68
2022/01/21 07:36:44;;;;;;;16.07;10.05;;;;;;;-3.12;100.00;98041.85;1741381;82;20103;-73
2022/01/21 07:39:10;;;;;;;46.77;40.05;;;;;;;-3.20;100.00;98022.38;1743062;82;21494;-70
2022/01/21 07:41:37;;;;;;;33.50;30.55;;;;;;;-3.20;100.00;98028.95;1742887;82;21073;-71
2022/01/21 07:44:05;;;;;;;27.22;14.50;;;;;;;-3.15;100.00;98031.25;1737290;82;22015;-68
2022/01/21 07:46:32;;;;;;;31.00;15.65;;;;;;;-3.11;100.00;98036.41;1737522;82;21142;-71
2022/01/21 07:48:59;;;;;;;60.40;28.23;;;;;;;-3.11;100.00;98035.09;1737044;82;21078;-70
2022/01/21 07:51:26;;;;;;;35.30;18.73;;;;;;;-2.94;100.00;98032.03;1737234;82;21044;-71
2022/01/21 07:53:53;;;;;;;63.13;29.57;;;;;;;-2.98;100.00;98049.22;1737310;82;21296;-71
2022/01/21 07:56:20;;;;;;;13.22;9.95;;;;;;;-2.96;100.00;98033.57;1737181;82;21603;-71
2022/01/21 07:58:46;;;;;;;18.23;8.63;;;;;;;-3.06;100.00;98024.00;1705706;82;21168;-71
2022/01/21 08:01:13;;;;;;;16.00;8.33;;;;;;;-3.09;100.00;98013.88;1727610;83;20866;-71
2022/01/21 08:03:43;;;;;;;23.98;9.80;;;;;;;-2.97;100.00;98034.56;1727889;81;22860;-68
2022/01/21 08:06:11;;;;;;;20.97;7.50;;;;;;;-3.03;100.00;98034.08;1735706;82;20996;-69
2022/01/21 08:08:39;;;;;;;22.22;9.53;;;;;;;-2.96;100.00;98031.42;1716902;83;21605;-71
2022/01/21 08:11:06;;;;;;;38.60;20.95;;;;;;;-2.93;100.00;98035.78;1717000;83;20905;-71
2022/01/21 08:13:32;;;;;;;51.85;38.10;;;;;;;-3.05;100.00;98023.77;1716540;83;21498;-73
2022/01/21 08:16:04;;;;;;;27.93;20.48;;;;;;;-2.99;100.00;98030.53;1716999;82;21120;-72
2022/01/21 08:18:31;;;;;;;56.50;38.17;;;;;;;-3.04;100.00;98023.27;1716856;83;21593;-71
2022/01/21 08:20:57;;;;;;;13.48;9.80;;;;;;;-2.83;100.00;98016.47;1716777;83;21570;-72
2022/01/21 08:23:24;;;;;;;37.90;10.72;;;;;;;-2.71;100.00;98025.05;1716720;83;21603;-69
2022/01/21 08:25:51;;;;;;;15.13;8.65;;;;;;;-2.63;100.00;98035.32;1716677;83;21080;-70
2022/01/21 08:28:18;;;;;;;24.85;13.00;;;;;;;-2.77;100.00;98028.48;1716632;83;21048;-71
2022/01/21 08:30:45;;;;;;;74.75;64.65;;;;;;;-2.77;100.00;98039.78;1716626;83;21056;-75
2022/01/21 08:33:11;;;;;;;28.35;15.38;;;;;;;-2.89;100.00;98034.85;1719427;82;21558;-70
2022/01/21 08:35:39;;;;;;;17.10;9.28;;;;;;;-2.93;100.00;98046.28;1727266;83;21147;-73
2022/01/21 08:38:05;;;;;;;15.25;8.35;;;;;;;-2.97;100.00;98035.08;1728903;81;20953;-71
2022/01/21 08:40:33;;;;;;;19.62;8.08;;;;;;;-2.96;100.00;98007.31;1745313;82;21447;-70
2022/01/21 08:43:00;;;;;;;17.60;7.90;;;;;;;-3.02;100.00;98031.23;1745153;82;21053;-73
2022/01/21 08:45:29;;;;;;;16.95;9.10;;;;;;;-3.11;100.00;98031.64;1745037;82;21013;-71
2022/01/21 08:47:56;;;;;;;19.73;8.75;;;;;;;-3.15;100.00;98039.64;1745528;82;25247;-71
2022/01/21 08:50:23;;;;;;;27.00;12.63;;;;;;;-3.11;100.00;98034.27;1745235;82;20934;-71
2022/01/21 08:52:55;;;;;;;288.23;186.15;;;;;;;-3.12;100.00;98012.47;1729379;82;21222;-70
2022/01/21 08:55:20;;;;;;;207.98;77.87;;;;;;;-3.13;100.00;98026.61;1727504;81;21765;-73
2022/01/21 08:57:49;;;;;;;72.22;23.57;;;;;;;-3.14;100.00;98022.36;1731076;82;21064;-72
2022/01/21 09:00:20;;;;;;;47.25;15.18;;;;;;;-3.19;100.00;98031.86;1716897;83;21172;-68
2022/01/21 09:02:48;;;;;;;134.93;42.83;;;;;;;-3.18;100.00;98030.87;1716716;83;20977;-70
2022/01/21 09:05:15;;;;;;;93.00;26.20;;;;;;;-3.11;100.00;98011.95;1716655;83;21014;-70
2022/01/21 09:07:42;;;;;;;94.47;25.45;;;;;;;-3.03;100.00;97995.50;1716760;83;20930;-70
2022/01/21 09:10:10;;;;;;;271.75;199.17;;;;;;;-2.97;100.00;97999.63;1717893;81;21002;-68
2022/01/21 09:12:38;;;;;;;105.52;39.85;;;;;;;-3.20;100.00;97999.56;1732561;82;21808;-70
2022/01/21 09:15:06;;;;;;;56.37;16.23;;;;;;;-3.04;100.00;98003.57;1710171;83;21051;-70
2022/01/21 09:17:39;;;;;;;20.82;10.38;;;;;;;-3.06;100.00;98032.67;1706609;84;20992;-72
2022/01/21 09:20:07;;;;;;;21.37;9.63;;;;;;;-3.10;100.00;98023.58;1706675;84;21443;-70
2022/01/21 09:22:34;;;;;;;31.35;7.45;;;;;;;-3.07;100.00;97973.80;1706602;82;21013;-67
2022/01/21 09:25:00;;;;;;;19.50;7.67;;;;;;;-2.97;100.00;98012.76;1709019;82;21125;-69
2022/01/21 09:27:28;;;;;;;34.70;8.13;;;;;;;-3.10;100.00;98010.45;1715666;82;21140;-71
2022/01/21 09:29:54;;;;;;;87.70;45.78;;;;;;;-2.99;100.00;98024.77;1700761;83;20963;-70
2022/01/21 09:32:21;;;;;;;29.87;10.70;;;;;;;-2.88;100.00;98028.61;1676560;84;20996;-70
2022/01/21 09:34:48;;;;;;;36.48;21.42;;;;;;;-2.70;100.00;98009.58;1681742;85;21075;-72
2022/01/21 09:37:15;;;;;;;27.00;15.98;;;;;;;-2.74;100.00;97983.41;1681600;84;21453;-68
2022/01/21 09:39:43;;;;;;;51.60;8.53;;;;;;;-2.68;100.00;98008.35;1681573;85;20955;-69
2022/01/21 09:42:09;;;;;;;25.88;7.92;;;;;;;-2.43;100.00;98024.23;1681934;85;21086;-70
2022/01/21 09:44:38;;;;;;;20.40;6.92;;;;;;;-2.47;100.00;98020.94;1681858;85;21102;-70
2022/01/21 09:47:05;;;;;;;35.30;7.78;;;;;;;-2.56;100.00;98003.78;1681965;85;21580;-70
2022/01/21 09:49:34;;;;;;;22.55;7.60;;;;;;;-2.35;100.00;98013.20;1681114;85;21199;-72
2022/01/21 09:52:06;;;;;;;;;;;;;;;-2.29;100.00;97990.03;1711101;82;21023;-68
2022/01/21 09:54:36;;;;;;;18.25;7.33;;;;;;;-2.08;100.00;98004.20;1709148;84;20092;-72
2022/01/21 09:57:05;;;;;;;12.88;8.33;;;;;;;-2.17;100.00;98018.08;1708369;83;20944;-73
2022/01/21 09:59:35;;;;;;;33.30;7.87;;;;;;;-2.35;100.00;98019.28;1678432;83;21113;-69
2022/01/21 10:02:06;;;;;;;75.55;55.00;;;;;;;-2.35;100.00;98019.77;1727190;82;21126;-69
2022/01/21 10:04:39;;;;;;;276.02;113.03;;;;;;;-2.43;100.00;97986.13;1691733;84;21692;-69
2022/01/21 10:07:06;;;;;;;64.20;26.00;;;;;;;-2.48;100.00;98003.03;1676525;85;21014;-68
2022/01/21 10:09:33;;;;;;;73.28;24.18;;;;;;;-2.49;100.00;98016.39;1647105;85;21044;-70
2022/01/21 10:12:01;;;;;;;122.47;37.53;;;;;;;-2.57;100.00;98004.30;1675712;85;21115;-70
2022/01/21 10:14:29;;;;;;;30.05;11.65;;;;;;;-2.45;100.00;98013.15;1676159;84;21153;-69
2022/01/21 10:16:58;;;;;;;;;;;;;;;-2.54;100.00;98027.52;1712725;83;20992;-70
2022/01/21 10:19:29;;;;;;;51.02;15.43;;;;;;;-2.53;100.00;98007.30;1707869;82;28736;-71
2022/01/21 10:22:01;;;;;;;38.48;15.15;;;;;;;-2.71;100.00;98009.28;1706730;84;21368;-70
2022/01/21 10:24:28;;;;;;;58.45;39.35;;;;;;;-2.76;100.00;98010.41;1706747;84;21029;-68
2022/01/21 10:26:56;;;;;;;20.43;12.50;;;;;;;-2.97;100.00;98003.06;1706965;84;21532;-71
2022/01/21 10:29:22;;;;;;;34.25;20.68;;;;;;;-2.91;100.00;98001.45;1706942;82;21061;-70
2022/01/21 10:31:59;;;;;;;12.85;5.97;;;;;;;-2.84;100.00;98005.68;1706741;82;21017;-66
2022/01/21 10:34:39;;;;;;;25.32;8.30;;;;;;;-2.94;100.00;97997.42;1706815;84;21625;-68
2022/01/21 10:37:30;;;;;;;12.25;7.20;;;;;;;-2.90;100.00;98001.23;1707040;84;21737;-70
2022/01/21 10:39:58;;;;;;;11.85;7.22;;;;;;;-2.93;100.00;98001.65;1716010;82;21079;-73
2022/01/21 10:42:26;;;;;;;11.63;6.42;;;;;;;-2.85;100.00;97992.74;1726110;82;21602;-68
2022/01/21 10:44:57;;;;;;;17.87;6.87;;;;;;;-2.65;100.00;97992.69;1710394;83;20992;-71
2022/01/21 10:47:35;;;;;;;24.10;6.75;;;;;;;-2.74;100.00;98001.31;1709738;83;21063;-71
2022/01/21 10:50:12;;;;;;;22.07;7.22;;;;;;;-2.76;100.00;98003.33;1709432;83;21023;-69
2022/01/21 10:52:51;;;;;;;22.20;7.78;;;;;;;-2.83;100.00;98004.66;1680277;85;21198;-69
2022/01/21 10:55:37;;;;;;;23.75;8.25;;;;;;;-2.77;100.00;98014.83;1709707;82;21257;-70
2022/01/21 10:58:15;;;;;;;16.20;5.30;;;;;;;-2.73;100.00;97995.03;1710213;83;21090;-70
2022/01/21 11:01:10;;;;;;;26.63;10.03;;;;;;;-2.74;100.00;98004.42;1682656;83;21705;-65
2022/01/21 11:03:36;;;;;;;24.65;17.65;;;;;;;-2.69;100.00;97985.73;1705360;83;21082;-72
2022/01/21 11:06:19;;;;;;;72.75;65.20;;;;;;;-2.76;100.00;97970.51;1710206;83;21032;-69
2022/01/21 11:09:22;;;;;;;66.75;49.13;;;;;;;-2.67;100.00;97985.03;1710299;83;21046;-67
2022/01/21 11:12:12;;;;;;;54.40;21.65;;;;;;;-2.53;100.00;97998.91;1708229;83;20971;-70
2022/01/21 11:15:01;;;;;;;104.65;41.08;;;;;;;-2.57;100.00;98002.16;1709995;83;21050;-71
2022/01/21 11:17:27;;;;;;;72.55;31.02;;;;;;;-2.71;100.00;97996.95;1719003;82;21121;-69
2022/01/21 11:20:18;;;;;;;20.88;10.00;;;;;;;-2.69;100.00;97995.45;1709550;83;21234;-68
2022/01/21 11:22:55;;;;;;;176.57;68.67;;;;;;;-2.70;100.00;97983.31;1683195;82;21096;-70
2022/01/21 11:25:49;;;;;;;78.97;31.85;;;;;;;-2.61;100.00;97988.13;1733947;82;21030;-73
2022/01/21 11:28:18;;;;;;;56.85;22.30;;;;;;;-2.65;100.00;97980.86;1717932;82;21628;-70
2022/01/21 11:30:46;;;;;;;101.97;39.78;;;;;;;-2.46;100.00;97992.33;1710493;83;21057;-69
2022/01/21 11:33:13;;;;;;;28.40;24.63;;;;;;;-2.22;100.00;97995.56;1710171;83;21928;-68
2022/01/21 11:35:40;;;;;;;28.23;22.40;;;;;;;-2.28;100.00;97995.09;1709861;83;20987;-67
2022/01/21 11:38:12;;;;;;;225.68;193.87;;;;;;;-2.25;100.00;97997.30;1709255;82;21043;-65
2022/01/21 11:40:40;;;;;;;101.45;80.17;;;;;;;-2.14;100.00;97972.16;1708856;83;21034;-67
2022/01/21 11:43:09;;;;;;;34.78;30.60;;;;;;;-2.08;100.00;97968.70;1709003;83;21402;-69
2022/01/21 11:50:45;;;;;;;29.52;9.73;;;;;;;-2.24;100.00;97992.84;1709317;83;21101;-72
2022/01/21 11:53:12;;;;;;;100.53;42.70;;;;;;;-2.35;100.00;97982.97;1708305;82;21020;-67
2022/01/21 11:55:45;;;;;;;11.97;8.03;;;;;;;-2.39;100.00;97995.22;1709251;82;21058;-68
2022/01/21 11:58:17;;;;;;;19.45;8.13;;;;;;;-2.48;100.00;97999.09;1709099;83;21292;-71
2022/01/21 12:00:47;;;;;;;16.07;7.10;;;;;;;-2.49;100.00;97995.38;1708134;82;20982;-69
2022/01/21 12:03:21;;;;;;;19.52;7.15;;;;;;;-2.39;100.00;97989.97;1714634;82;21019;-70
2022/01/21 12:05:47;;;;;;;25.27;10.23;;;;;;;-2.33;100.00;97989.63;1709762;82;21168;-68
2022/01/21 12:08:14;;;;;;;25.85;7.85;;;;;;;-2.46;100.00;97987.08;1713804;82;21018;-70
2022/01/21 12:10:43;;;;;;;16.02;7.30;;;;;;;-2.51;100.00;97976.38;1712947;82;21860;-72
2022/01/21 12:13:23;;;;;;;17.92;6.92;;;;;;;-2.50;100.00;97988.49;1702288;83;21552;-70
2022/01/21 12:19:16;;;;;;;24.25;9.00;;;;;;;-2.40;100.00;98003.30;1732597;81;20177;-70
2022/01/21 12:21:41;;;;;;;22.52;8.85;;;;;;;-2.43;100.00;97988.77;1663916;85;21071;-71
2022/01/21 12:24:09;;;;;;;25.17;7.30;;;;;;;-2.31;100.00;97988.92;1661989;86;21176;-68